Time;durP1;ratioP1;P1;durP2;ratioP2;P2;SDS_P1;SDS_P2;PMS_P1;PMS_P2;Temp;Humidity;BMP_temperature;BMP_pressure;BME280_temperature;BME280_humidity;BME280_pressure;Samples;Min_cycle;Max_cycle;Signal;HPM_P1;HPM_P2
2022/02/26 00:04:31;;;;;;;6.17;3.50;;;7.00;99.90;;;;;;10378484;28;20198;-77
2022/02/26 00:09:33;;;;;;;6.37;3.80;;;7.00;99.90;;;;;;10371043;28;20258;-78
2022/02/26 00:14:36;;;;;;;5.37;3.20;;;6.90;99.90;;;;;;10385749;28;20243;-78
2022/02/26 00:19:39;;;;;;;5.33;3.10;;;6.90;99.90;;;;;;10408854;28;20237;-78
2022/02/26 00:24:41;;;;;;;6.20;3.87;;;7.00;99.90;;;;;;10410789;28;20210;-78
2022/02/26 00:29:45;;;;;;;6.97;3.70;;;6.90;99.90;;;;;;10407684;28;20226;-78
2022/02/26 00:34:47;;;;;;;6.30;3.70;;;7.00;99.90;;;;;;10407265;28;20233;-78
2022/02/26 00:39:49;;;;;;;5.70;4.10;;;7.10;99.90;;;;;;10408726;28;20223;-78
2022/02/26 00:44:52;;;;;;;5.57;3.83;;;7.20;99.90;;;;;;10383960;28;20206;-78
2022/02/26 00:49:55;;;;;;;5.27;4.40;;;7.20;99.90;;;;;;10383621;28;20486;-78
2022/02/26 00:54:59;;;;;;;4.53;3.70;;;7.20;99.90;;;;;;10399999;28;20698;-78
2022/02/26 01:00:03;;;;;;;5.63;3.70;;;7.20;99.80;;;;;;10384449;28;20747;-77
2022/02/26 01:05:06;;;;;;;8.00;3.50;;;7.30;99.80;;;;;;10405120;28;20297;-77
2022/02/26 01:10:09;;;;;;;4.97;4.43;;;7.20;99.60;;;;;;10408903;28;20229;-77
2022/02/26 01:15:13;;;;;;;4.67;3.43;;;7.20;99.90;;;;;;10396768;28;20852;-76
2022/02/26 01:20:15;;;;;;;5.10;3.80;;;7.20;99.90;;;;;;10402911;28;20230;-77
2022/02/26 01:25:20;;;;;;;6.50;3.10;;;7.30;99.90;;;;;;10407807;28;20276;-77
2022/02/26 01:30:23;;;;;;;10.23;3.60;;;7.30;99.60;;;;;;10401297;28;20321;-77
2022/02/26 01:35:26;;;;;;;7.60;4.40;;;7.30;99.60;;;;;;10408881;28;20260;-77
2022/02/26 01:40:28;;;;;;;4.30;3.20;;;7.30;99.90;;;;;;10401610;28;20272;-77
2022/02/26 01:45:31;;;;;;;5.30;4.30;;;7.30;99.70;;;;;;10395423;28;20197;-76
2022/02/26 01:50:34;;;;;;;5.47;3.73;;;7.30;99.90;;;;;;10388148;28;20619;-78
2022/02/26 01:55:37;;;;;;;5.97;3.50;;;7.30;99.90;;;;;;10384312;28;20218;-77
2022/02/26 02:00:41;;;;;;;6.70;4.17;;;7.40;99.90;;;;;;10382769;28;20218;-77
2022/02/26 02:05:44;;;;;;;7.80;4.30;;;7.30;99.30;;;;;;10405922;28;20204;-77
2022/02/26 02:10:47;;;;;;;6.40;3.97;;;7.30;99.60;;;;;;10416821;28;20221;-77
2022/02/26 02:15:53;;;;;;;7.57;4.37;;;7.20;99.10;;;;;;10413889;28;20713;-77
2022/02/26 02:20:57;;;;;;;9.57;4.40;;;7.20;99.40;;;;;;10412348;28;20226;-78
2022/02/26 02:26:02;;;;;;;7.97;4.50;;;7.10;99.70;;;;;;10412341;28;20614;-77
2022/02/26 02:31:04;;;;;;;6.93;3.80;;;7.00;99.80;;;;;;10491114;22;20227;-81
2022/02/26 02:36:06;;;;;;;4.87;4.40;;;7.10;99.90;;;;;;10465352;28;20251;-81
2022/02/26 02:41:10;;;;;;;5.63;4.37;;;7.00;99.70;;;;;;10430192;28;20757;-81
2022/02/26 02:46:12;;;;;;;5.57;4.37;;;7.00;99.90;;;;;;10443050;28;20280;-81
2022/02/26 02:51:14;;;;;;;8.00;4.40;;;7.00;99.90;;;;;;10464340;28;20645;-81
2022/02/26 02:56:18;;;;;;;8.73;4.70;;;7.00;99.90;;;;;;10447886;28;20602;-81
2022/02/26 03:01:20;;;;;;;8.23;5.30;;;7.10;99.70;;;;;;10425998;28;20239;-81
2022/02/26 03:06:25;;;;;;;7.10;4.70;;;7.00;99.90;;;;;;10435117;28;20261;-81
2022/02/26 03:11:28;;;;;;;7.57;5.20;;;7.00;99.60;;;;;;10446639;28;20228;-79
2022/02/26 03:16:30;;;;;;;7.60;6.00;;;7.00;99.50;;;;;;10458427;28;20217;-80
2022/02/26 03:21:33;;;;;;;10.03;5.30;;;6.90;99.40;;;;;;10432431;28;20257;-81
2022/02/26 03:26:36;;;;;;;8.70;5.60;;;6.90;99.90;;;;;;10433152;28;20201;-80
2022/02/26 03:31:38;;;;;;;11.87;6.40;;;6.90;99.90;;;;;;10434327;28;20233;-81
2022/02/26 03:36:41;;;;;;;9.20;6.00;;;6.90;99.80;;;;;;10439286;28;20299;-80
2022/02/26 03:41:44;;;;;;;9.50;6.10;;;6.90;99.80;;;;;;10405826;28;20220;-80
2022/02/26 03:46:47;;;;;;;8.27;6.40;;;6.80;99.90;;;;;;10455643;28;20202;-81
2022/02/26 03:51:49;;;;;;;7.60;6.80;;;6.70;99.90;;;;;;10437837;28;20262;-80
2022/02/26 03:56:53;;;;;;;11.40;6.53;;;6.70;99.90;;;;;;10440061;28;20245;-81
2022/02/26 04:01:55;;;;;;;9.33;6.20;;;6.60;99.90;;;;;;10454426;28;20197;-81
2022/02/26 04:06:57;;;;;;;8.60;7.10;;;6.60;99.90;;;;;;10444019;28;20231;-81
2022/02/26 04:12:02;;;;;;;9.80;7.07;;;6.60;99.90;;;;;;10427980;28;20650;-81
2022/02/26 04:17:05;;;;;;;11.67;7.60;;;6.60;99.90;;;;;;10424320;28;20645;-81
2022/02/26 04:22:07;;;;;;;7.53;6.70;;;6.60;99.90;;;;;;10433784;28;20201;-81
2022/02/26 04:27:11;;;;;;;10.27;6.73;;;6.60;99.90;;;;;;10452662;28;20296;-81
2022/02/26 04:32:13;;;;;;;11.40;6.80;;;6.60;99.90;;;;;;10457099;28;20212;-81
2022/02/26 04:37:17;;;;;;;9.43;7.07;;;6.50;99.90;;;;;;10452945;28;20217;-81
2022/02/26 04:42:21;;;;;;;7.80;6.97;;;6.60;99.90;;;;;;10439433;28;20197;-81
2022/02/26 04:47:23;;;;;;;9.93;6.80;;;6.60;99.90;;;;;;10450252;28;20218;-80
2022/02/26 04:52:25;;;;;;;13.13;7.73;;;6.60;99.90;;;;;;10450509;28;20197;-80
2022/02/26 04:57:29;;;;;;;9.50;6.60;;;6.50;99.90;;;;;;10463436;28;20217;-80
2022/02/26 05:02:31;;;;;;;16.20;7.63;;;6.50;99.90;;;;;;10445984;28;20201;-81
2022/02/26 05:07:33;;;;;;;8.30;7.50;;;6.60;99.90;;;;;;10442481;28;20241;-81
2022/02/26 05:12:36;;;;;;;11.37;7.30;;;6.60;99.90;;;;;;10459989;28;20251;-80
2022/02/26 05:17:39;;;;;;;11.13;6.60;;;6.60;99.90;;;;;;10435695;28;20490;-81
2022/02/26 05:22:42;;;;;;;10.17;7.40;;;6.70;99.90;;;;;;10439221;28;20198;-80
2022/02/26 05:27:46;;;;;;;12.13;7.23;;;6.60;99.90;;;;;;10453185;28;20308;-80
2022/02/26 05:32:48;;;;;;;14.40;7.77;;;6.60;99.90;;;;;;10443014;28;20586;-80
2022/02/26 05:37:50;;;;;;;11.23;7.77;;;6.60;99.90;;;;;;10452988;28;20233;-79
2022/02/26 05:42:54;;;;;;;10.93;7.33;;;6.70;99.90;;;;;;10473054;28;20960;-79
2022/02/26 05:47:56;;;;;;;16.90;9.10;;;6.70;99.90;;;;;;10456877;28;20312;-80
2022/02/26 05:52:58;;;;;;;13.20;7.90;;;6.70;99.90;;;;;;10451511;28;20566;-80
2022/02/26 05:58:01;;;;;;;11.73;8.43;;;6.70;99.90;;;;;;10451439;28;20712;-79
2022/02/26 06:03:03;;;;;;;11.30;7.90;;;6.70;99.90;;;;;;10469529;28;20203;-80
2022/02/26 06:08:06;;;;;;;18.37;8.57;;;6.80;99.90;;;;;;10442494;28;20659;-81
2022/02/26 06:13:09;;;;;;;13.40;8.07;;;6.80;99.90;;;;;;10448740;28;20212;-81
2022/02/26 06:18:11;;;;;;;11.00;8.93;;;6.80;99.90;;;;;;10448866;28;20293;-81
2022/02/26 06:23:13;;;;;;;14.33;9.23;;;6.80;99.90;;;;;;10444365;28;20227;-81
2022/02/26 06:28:17;;;;;;;9.90;8.30;;;6.80;99.90;;;;;;10439579;28;20267;-81
2022/02/26 06:33:19;;;;;;;14.90;9.70;;;6.80;99.90;;;;;;10448153;28;20209;-81
2022/02/26 06:38:21;;;;;;;16.30;8.43;;;6.80;99.90;;;;;;10483653;28;20252;-80
2022/02/26 06:43:25;;;;;;;11.70;8.80;;;6.80;99.90;;;;;;10452696;28;20672;-80
2022/02/26 06:48:27;;;;;;;16.03;9.10;;;6.80;99.90;;;;;;10426205;28;20256;-79
2022/02/26 06:53:29;;;;;;;12.60;8.37;;;6.90;99.90;;;;;;10430389;28;20243;-80
2022/02/26 06:58:33;;;;;;;11.97;7.90;;;6.90;99.90;;;;;;10459355;28;20495;-80
2022/02/26 07:03:35;;;;;;;10.47;8.80;;;7.00;99.90;;;;;;10461729;28;20246;-80
2022/02/26 07:08:37;;;;;;;16.80;8.20;;;7.00;99.90;;;;;;10444683;28;20228;-80
2022/02/26 07:13:40;;;;;;;11.70;8.97;;;6.90;99.90;;;;;;10440911;28;20289;-80
2022/02/26 07:18:43;;;;;;;10.60;7.80;;;7.00;99.90;;;;;;10427630;28;20224;-80
2022/02/26 07:23:45;;;;;;;11.50;7.93;;;7.00;99.60;;;;;;10447629;28;20276;-80
2022/02/26 07:28:48;;;;;;;11.63;8.50;;;7.00;99.90;;;;;;10430344;28;20233;-81
2022/02/26 07:33:51;;;;;;;15.03;9.30;;;7.00;99.90;;;;;;10431865;28;20221;-80
2022/02/26 07:38:53;;;;;;;13.10;8.17;;;7.10;99.90;;;;;;10439907;28;20582;-80
2022/02/26 07:43:56;;;;;;;10.23;7.90;;;7.10;99.90;;;;;;10456611;28;20193;-80
2022/02/26 07:48:59;;;;;;;15.87;8.27;;;7.20;99.40;;;;;;10425680;28;20225;-83
2022/02/26 07:54:01;;;;;;;12.70;9.10;;;7.20;99.50;;;;;;10432215;28;20278;-82
2022/02/26 07:59:05;;;;;;;10.43;8.60;;;7.30;99.60;;;;;;10440221;28;20244;-84
2022/02/26 08:04:08;;;;;;;13.43;8.67;;;7.30;99.90;;;;;;10414987;28;20212;-84
2022/02/26 08:09:10;;;;;;;12.83;8.90;;;7.40;99.30;;;;;;10434179;28;20605;-84
2022/02/26 08:14:13;;;;;;;15.40;8.87;;;7.40;99.50;;;;;;10455086;28;20220;-83
2022/02/26 08:19:16;;;;;;;18.33;9.17;;;7.50;99.40;;;;;;10422020;28;20304;-83
2022/02/26 08:24:18;;;;;;;17.77;10.00;;;7.60;99.10;;;;;;10423816;28;20332;-82
2022/02/26 08:29:22;;;;;;;14.23;9.53;;;7.70;98.90;;;;;;10415818;28;20232;-82
2022/02/26 08:34:24;;;;;;;12.20;8.80;;;7.80;99.00;;;;;;10432940;28;20229;-84
2022/02/26 08:39:29;;;;;;;11.17;8.50;;;7.90;99.20;;;;;;10434969;28;20227;-86
2022/02/26 08:44:33;;;;;;;11.20;8.23;;;8.00;98.80;;;;;;10424933;28;20201;-83
2022/02/26 08:49:35;;;;;;;14.23;9.80;;;8.10;98.50;;;;;;10431826;28;20219;-83
2022/02/26 08:54:38;;;;;;;13.00;9.27;;;8.10;98.40;;;;;;10407233;28;20213;-83
2022/02/26 08:59:42;;;;;;;11.53;8.80;;;8.20;96.40;;;;;;10395941;28;20255;-83
2022/02/26 09:04:44;;;;;;;12.40;8.70;;;8.10;97.60;;;;;;10412008;28;20201;-83
2022/02/26 09:09:46;;;;;;;11.73;8.50;;;8.10;98.20;;;;;;10437729;28;20273;-83
2022/02/26 09:14:50;;;;;;;9.57;7.97;;;8.10;97.10;;;;;;10444746;28;20672;-84
2022/02/26 09:19:52;;;;;;;11.53;9.23;;;8.10;96.60;;;;;;10439190;28;20225;-84
2022/02/26 09:24:54;;;;;;;11.07;7.80;;;8.00;97.00;;;;;;10424731;28;20227;-86
2022/02/26 09:29:58;;;;;;;13.77;8.20;;;7.90;96.80;;;;;;10435384;28;20233;-85
2022/02/26 09:35:00;;;;;;;12.23;6.50;;;7.80;96.70;;;;;;10438596;28;20237;-86
2022/02/26 09:40:05;;;;;;;12.93;8.30;;;7.70;93.90;;;;;;10427991;28;20739;-85
2022/02/26 09:45:10;;;;;;;13.73;8.13;;;7.60;95.90;;;;;;10413295;28;20196;-84
2022/02/26 09:50:12;;;;;;;15.17;7.43;;;7.70;96.40;;;;;;10428985;28;20237;-86
2022/02/26 09:55:15;;;;;;;11.33;6.90;;;8.00;94.40;;;;;;10439987;28;20217;-86
2022/02/26 10:00:19;;;;;;;4.23;3.53;;;8.00;95.70;;;;;;10420207;28;20707;-84
2022/02/26 10:05:23;;;;;;;4.47;2.73;;;8.00;94.00;;;;;;10409266;28;20186;-85
2022/02/26 10:10:28;;;;;;;5.53;2.53;;;8.10;91.40;;;;;;10422734;28;20276;-84
2022/02/26 10:15:36;;;;;;;9.10;2.90;;;8.40;91.10;;;;;;10395075;28;20272;-85
2022/02/26 10:20:44;;;;;;;4.13;2.63;;;8.60;91.20;;;;;;10395100;28;20218;-83
2022/02/26 10:25:51;;;;;;;10.40;3.40;;;8.80;86.70;;;;;;10413025;28;20202;-83
2022/02/26 10:30:55;;;;;;;3.17;2.30;;;8.90;80.20;;;;;;10395797;28;20233;-84
2022/02/26 10:35:59;;;;;;;6.27;2.40;;;8.90;84.10;;;;;;10390967;28;20588;-86
2022/02/26 10:41:06;;;;;;;4.73;2.40;;;9.00;79.10;;;;;;10391405;28;20305;-84
2022/02/26 10:46:27;;;;;;;6.50;2.80;;;8.90;85.10;;;;;;10400290;28;20277;-85
2022/02/26 10:51:31;;;;;;;4.03;2.77;;;8.90;85.80;;;;;;10394081;28;20228;-83
2022/02/26 10:56:36;;;;;;;3.90;2.43;;;9.00;81.40;;;;;;10395328;28;20218;-85
2022/02/26 11:01:40;;;;;;;7.20;3.50;;;8.90;84.00;;;;;;10398843;28;20217;-85
2022/02/26 11:06:43;;;;;;;5.43;3.50;;;8.80;86.70;;;;;;10399159;28;20194;-84
2022/02/26 11:11:46;;;;;;;4.97;3.60;;;8.70;87.20;;;;;;10407016;28;20221;-84
2022/02/26 11:16:52;;;;;;;8.10;3.80;;;8.70;85.20;;;;;;10409510;28;20777;-83
2022/02/26 11:21:54;;;;;;;7.43;4.17;;;8.70;89.70;;;;;;10454951;28;20221;-83
2022/02/26 11:27:00;;;;;;;7.60;4.20;;;8.60;89.70;;;;;;10417492;28;20400;-85
2022/02/26 11:32:07;;;;;;;5.60;3.83;;;8.50;90.30;;;;;;10407607;28;20292;-85
2022/02/26 11:37:16;;;;;;;6.83;3.93;;;8.40;89.70;;;;;;10436991;28;20229;-85
2022/02/26 11:42:39;;;;;;;4.97;3.20;;;8.20;90.30;;;;;;10414296;28;20216;-84
2022/02/26 11:47:50;;;;;;;7.37;3.50;;;8.10;90.00;;;;;;10432381;28;20217;-85
2022/02/26 11:52:55;;;;;;;5.90;3.10;;;8.20;85.90;;;;;;10416952;28;20207;-85
2022/02/26 11:58:00;;;;;;;4.73;3.50;;;8.30;83.20;;;;;;10403001;28;20228;-83
2022/02/26 12:03:28;;;;;;;7.63;3.20;;;8.40;87.20;;;;;;10427444;28;20205;-83
2022/02/26 12:08:39;;;;;;;3.40;2.70;;;8.50;87.50;;;;;;10421966;28;20248;-83
2022/02/26 12:13:42;;;;;;;5.30;3.70;;;8.70;83.70;;;;;;10413105;28;20197;-83
2022/02/26 12:18:48;;;;;;;5.23;3.07;;;8.60;86.10;;;;;;10416940;28;20262;-83
2022/02/26 12:24:05;;;;;;;6.00;2.90;;;8.50;87.00;;;;;;10410770;28;20295;-83
2022/02/26 12:29:07;;;;;;;8.40;3.33;;;8.40;82.30;;;;;;10418467;28;20309;-84
2022/02/26 12:34:19;;;;;;;11.70;3.40;;;8.40;82.50;;;;;;10440737;28;20209;-83
2022/02/26 12:39:28;;;;;;;5.93;2.77;;;8.50;85.90;;;;;;10429115;28;20256;-84
2022/02/26 12:44:31;;;;;;;4.00;2.57;;;8.70;86.70;;;;;;10454430;28;20293;-83
2022/02/26 12:49:34;;;;;;;9.07;3.57;;;9.00;85.60;;;;;;10416153;28;20284;-84
2022/02/26 12:54:37;;;;;;;3.67;2.60;;;9.10;78.60;;;;;;10408798;28;20678;-84
2022/02/26 12:59:41;;;;;;;9.53;2.60;;;9.10;84.10;;;;;;10437781;28;20311;-85
2022/02/26 13:04:45;;;;;;;5.57;2.77;;;9.20;79.30;;;;;;10432618;28;20674;-85
2022/02/26 13:09:58;;;;;;;6.40;3.13;;;9.30;77.10;;;;;;10403448;28;20275;-83
2022/02/26 13:15:02;;;;;;;5.20;3.00;;;9.20;80.60;;;;;;10452863;28;20274;-83
2022/02/26 13:20:14;;;;;;;4.80;3.60;;;9.20;84.90;;;;;;10441954;28;20221;-83
2022/02/26 13:25:17;;;;;;;9.23;3.20;;;9.10;84.30;;;;;;10414240;28;20209;-83
2022/02/26 13:30:21;;;;;;;5.87;3.20;;;8.90;84.90;;;;;;10434334;28;20244;-83
2022/02/26 13:35:26;;;;;;;6.80;2.80;;;8.90;86.60;;;;;;10432018;28;20307;-85
2022/02/26 13:40:29;;;;;;;5.13;3.23;;;8.90;87.00;;;;;;10424678;28;20221;-83
2022/02/26 13:45:32;;;;;;;7.20;3.20;;;9.10;85.80;;;;;;10424099;28;20637;-83
2022/02/26 13:50:36;;;;;;;10.40;2.87;;;9.30;79.40;;;;;;10392814;28;20681;-83
2022/02/26 13:55:38;;;;;;;6.83;2.60;;;9.30;81.80;;;;;;10406524;28;20218;-82
2022/02/26 14:00:44;;;;;;;3.93;2.33;;;9.40;80.60;;;;;;10405245;28;20224;-83
2022/02/26 14:05:49;;;;;;;11.50;2.83;;;9.20;81.00;;;;;;10408672;28;20222;-83
2022/02/26 14:10:51;;;;;;;5.00;3.13;;;9.10;82.70;;;;;;10410298;28;20601;-83
2022/02/26 14:15:53;;;;;;;4.13;3.07;;;8.90;82.10;;;;;;10416123;28;20591;-83
2022/02/26 14:20:56;;;;;;;9.37;2.67;;;8.90;84.30;;;;;;10418327;28;20227;-83
2022/02/26 14:26:00;;;;;;;4.30;2.40;;;9.00;79.20;;;;;;10422138;28;20266;-82
2022/02/26 14:31:02;;;;;;;7.73;2.90;;;9.00;79.90;;;;;;10463842;22;20225;-79
2022/02/26 14:36:06;;;;;;;5.93;3.10;;;8.90;80.90;;;;;;10426484;28;20290;-80
2022/02/26 14:41:09;;;;;;;4.70;2.70;;;8.70;82.00;;;;;;10409028;28;20218;-80
2022/02/26 14:46:11;;;;;;;6.97;3.03;;;8.60;80.70;;;;;;10383469;28;20198;-80
2022/02/26 14:51:15;;;;;;;3.10;2.80;;;8.50;78.90;;;;;;10384074;28;20710;-80
2022/02/26 14:56:17;;;;;;;6.30;3.00;;;8.40;82.70;;;;;;10382334;28;20224;-78
2022/02/26 15:01:20;;;;;;;4.47;2.20;;;8.50;83.40;;;;;;10379541;28;20726;-80
2022/02/26 15:06:23;;;;;;;6.07;3.07;;;8.60;82.10;;;;;;10401113;28;20215;-80
2022/02/26 15:11:26;;;;;;;5.87;2.90;;;8.60;81.10;;;;;;10403848;28;20233;-80
2022/02/26 15:16:28;;;;;;;5.53;2.80;;;8.60;81.70;;;;;;10413955;28;20224;-80
2022/02/26 15:21:32;;;;;;;5.87;2.33;;;8.50;80.90;;;;;;10414572;28;20651;-77
2022/02/26 15:26:34;;;;;;;6.60;2.40;;;8.40;78.80;;;;;;10411366;28;20194;-78
2022/02/26 15:31:36;;;;;;;4.13;2.20;;;8.30;83.50;;;;;;10399005;28;20238;-77
2022/02/26 15:36:40;;;;;;;5.47;2.67;;;8.20;84.60;;;;;;10410913;28;20279;-77
2022/02/26 15:41:42;;;;;;;10.40;2.73;;;8.20;80.40;;;;;;10393160;28;20233;-78
2022/02/26 15:46:44;;;;;;;7.00;2.80;;;8.20;85.30;;;;;;10392464;28;20198;-80
2022/02/26 15:51:48;;;;;;;3.80;2.50;;;8.10;84.30;;;;;;10393942;28;20233;-77
2022/02/26 15:56:50;;;;;;;7.40;2.57;;;8.10;85.80;;;;;;10392485;28;20241;-78
2022/02/26 16:01:52;;;;;;;4.20;2.53;;;8.20;85.70;;;;;;10402669;28;20298;-77
2022/02/26 16:06:56;;;;;;;3.53;2.17;;;8.20;83.70;;;;;;10410836;28;20284;-78
2022/02/26 16:11:58;;;;;;;3.17;2.20;;;8.30;84.00;;;;;;10409605;28;20304;-78
2022/02/26 16:17:00;;;;;;;4.63;2.30;;;8.40;80.80;;;;;;10386716;28;20313;-79
2022/02/26 16:22:04;;;;;;;4.73;2.67;;;8.40;83.50;;;;;;10408660;28;20585;-79
2022/02/26 16:27:06;;;;;;;5.50;3.00;;;8.40;82.10;;;;;;10409381;28;20208;-79
2022/02/26 16:32:09;;;;;;;6.30;2.40;;;8.40;82.40;;;;;;10386985;28;20241;-80
2022/02/26 16:37:12;;;;;;;3.13;2.70;;;8.40;83.20;;;;;;10382348;28;20228;-80
2022/02/26 16:42:15;;;;;;;6.37;2.73;;;8.40;79.60;;;;;;10376309;28;20293;-79
2022/02/26 16:47:17;;;;;;;5.80;2.93;;;8.30;84.40;;;;;;10389423;28;20198;-78
2022/02/26 16:52:21;;;;;;;5.70;3.20;;;8.30;84.90;;;;;;10416551;28;20250;-79
2022/02/26 16:57:24;;;;;;;3.33;2.60;;;8.20;82.70;;;;;;10381200;28;20325;-78
2022/02/26 17:02:26;;;;;;;6.80;3.63;;;8.20;84.40;;;;;;10413804;28;20198;-78
2022/02/26 17:07:29;;;;;;;8.57;3.23;;;8.20;82.90;;;;;;10394654;28;20217;-79
2022/02/26 17:12:31;;;;;;;6.03;3.70;;;8.10;84.90;;;;;;10411358;28;20285;-78
2022/02/26 17:17:34;;;;;;;4.60;3.10;;;8.10;84.20;;;;;;10412304;28;20233;-78
2022/02/26 17:22:37;;;;;;;5.43;3.30;;;8.10;78.30;;;;;;10386722;28;20635;-78
2022/02/26 17:27:39;;;;;;;4.30;2.90;;;8.10;82.60;;;;;;10396988;28;20261;-78
2022/02/26 17:32:42;;;;;;;2.83;2.30;;;8.00;77.00;;;;;;10417487;28;20575;-79
2022/02/26 17:37:45;;;;;;;5.77;2.10;;;7.90;80.10;;;;;;10418315;28;20225;-78
2022/02/26 17:42:47;;;;;;;3.30;2.20;;;7.90;79.40;;;;;;10399134;28;20213;-78
2022/02/26 17:47:50;;;;;;;4.10;2.57;;;7.80;82.90;;;;;;10399056;28;20301;-78
2022/02/26 17:52:53;;;;;;;6.80;3.23;;;7.80;83.50;;;;;;10399967;28;20202;-78
2022/02/26 17:57:55;;;;;;;4.37;2.83;;;7.90;85.30;;;;;;10413624;28;20222;-78
2022/02/26 18:02:58;;;;;;;4.90;2.77;;;7.80;82.30;;;;;;10417541;28;20202;-79
2022/02/26 18:08:01;;;;;;;3.97;2.83;;;7.80;83.80;;;;;;10398766;28;20690;-79
2022/02/26 18:13:03;;;;;;;4.17;2.87;;;7.80;85.50;;;;;;10400719;28;20669;-78
2022/02/26 18:18:06;;;;;;;4.13;3.33;;;7.80;85.70;;;;;;10399760;28;20229;-78
2022/02/26 18:23:09;;;;;;;6.17;3.27;;;7.80;86.60;;;;;;10399602;28;20202;-79
2022/02/26 18:28:11;;;;;;;3.87;2.63;;;7.80;85.70;;;;;;10401829;28;20697;-78
2022/02/26 18:33:14;;;;;;;3.37;2.40;;;7.80;77.30;;;;;;10394954;28;20202;-79
2022/02/26 18:38:18;;;;;;;4.33;2.73;;;7.70;83.30;;;;;;10408022;28;20221;-78
2022/02/26 18:43:20;;;;;;;2.40;2.20;;;7.60;85.80;;;;;;10399942;28;20304;-79
2022/02/26 18:48:22;;;;;;;4.20;2.73;;;7.60;85.20;;;;;;10378197;28;20589;-79
2022/02/26 18:53:25;;;;;;;9.20;4.60;;;7.60;85.80;;;;;;10403709;28;20702;-78
2022/02/26 18:58:28;;;;;;;3.50;3.10;;;7.60;84.90;;;;;;10404599;28;20226;-78
2022/02/26 19:03:30;;;;;;;5.07;3.10;;;7.60;85.50;;;;;;10408826;28;20209;-78
2022/02/26 19:08:33;;;;;;;4.83;2.73;;;7.60;86.10;;;;;;10409510;28;20257;-78
2022/02/26 19:13:35;;;;;;;5.27;3.67;;;7.60;81.90;;;;;;10410262;28;20285;-80
2022/02/26 19:18:38;;;;;;;5.87;3.50;;;7.50;85.40;;;;;;10391027;28;20591;-78
2022/02/26 19:23:42;;;;;;;7.97;2.63;;;7.40;84.70;;;;;;10409214;28;20198;-78
2022/02/26 19:28:44;;;;;;;5.17;3.00;;;7.40;84.70;;;;;;10392865;28;20229;-78
2022/02/26 19:33:46;;;;;;;9.57;6.87;;;7.40;88.10;;;;;;10387804;28;20588;-78
2022/02/26 19:38:50;;;;;;;15.13;9.00;;;7.40;87.10;;;;;;10405696;28;20313;-78
2022/02/26 19:43:52;;;;;;;13.90;6.87;;;7.30;88.20;;;;;;10371220;28;20216;-78
2022/02/26 19:48:54;;;;;;;4.83;4.17;;;7.40;87.90;;;;;;10405057;28;20664;-79
2022/02/26 19:53:58;;;;;;;8.23;5.30;;;7.40;87.80;;;;;;10404568;28;20217;-79
2022/02/26 19:59:00;;;;;;;5.60;4.70;;;7.40;89.90;;;;;;10401365;28;20236;-78
2022/02/26 20:04:04;;;;;;;7.23;4.33;;;7.50;89.40;;;;;;10404131;28;20293;-78
2022/02/26 20:09:08;;;;;;;5.27;4.10;;;7.40;89.30;;;;;;10391344;28;20220;-79
2022/02/26 20:14:11;;;;;;;7.87;6.13;;;7.40;90.20;;;;;;10404403;28;20685;-78
2022/02/26 20:19:13;;;;;;;5.67;4.47;;;7.30;90.20;;;;;;10366304;28;20345;-78
2022/02/26 20:24:17;;;;;;;6.30;4.03;;;7.30;90.00;;;;;;10375789;28;20210;-77
2022/02/26 20:29:19;;;;;;;7.50;5.50;;;7.20;90.00;;;;;;10427602;22;20768;-84
2022/02/26 20:34:22;;;;;;;8.80;5.60;;;7.20;89.70;;;;;;10399226;28;20586;-82
2022/02/26 20:39:25;;;;;;;6.50;4.70;;;7.10;90.20;;;;;;10403153;28;20244;-82
2022/02/26 20:44:28;;;;;;;8.20;5.07;;;7.00;90.30;;;;;;10381928;28;20209;-83
2022/02/26 20:49:30;;;;;;;6.27;4.80;;;6.90;90.20;;;;;;10356341;28;20313;-83
2022/02/26 20:54:34;;;;;;;6.27;4.57;;;6.80;90.90;;;;;;10382413;28;20203;-84
2022/02/26 20:59:36;;;;;;;8.03;4.63;;;6.70;91.40;;;;;;10394223;28;20321;-84
2022/02/26 21:04:38;;;;;;;8.20;4.43;;;6.70;91.40;;;;;;10390559;28;20205;-82
2022/02/26 21:09:42;;;;;;;10.70;6.83;;;6.60;91.50;;;;;;10395555;28;20226;-82
2022/02/26 21:14:45;;;;;;;8.97;5.13;;;6.60;91.20;;;;;;10369294;28;20297;-85
2022/02/26 21:19:49;;;;;;;7.60;5.27;;;6.60;91.70;;;;;;10360185;28;20230;-85
2022/02/26 21:24:55;;;;;;;8.00;6.63;;;6.50;92.00;;;;;;10384402;28;20860;-84
2022/02/26 21:30:00;;;;;;;8.83;5.17;;;6.40;92.10;;;;;;10393491;28;20332;-84
2022/02/26 21:35:02;;;;;;;8.80;6.50;;;6.30;92.30;;;;;;10418496;28;20589;-84
2022/02/26 21:40:07;;;;;;;13.40;7.57;;;6.20;92.50;;;;;;10394942;28;20230;-82
2022/02/26 21:45:10;;;;;;;10.23;8.97;;;6.20;92.40;;;;;;10377759;28;20664;-84
2022/02/26 21:50:13;;;;;;;8.80;5.13;;;6.10;91.70;;;;;;10389342;28;20317;-84
2022/02/26 21:55:20;;;;;;;11.43;5.60;;;6.00;92.70;;;;;;10409702;28;20195;-84
2022/02/26 22:00:22;;;;;;;9.57;5.87;;;6.00;91.50;;;;;;10407031;28;20284;-84
2022/02/26 22:05:24;;;;;;;16.37;9.00;;;5.80;92.90;;;;;;10374633;28;20203;-82
2022/02/26 22:10:28;;;;;;;7.00;4.13;;;5.70;93.00;;;;;;10400047;28;20683;-82
2022/02/26 22:15:31;;;;;;;10.17;4.50;;;5.70;93.70;;;;;;10411371;28;20240;-82
2022/02/26 22:20:33;;;;;;;5.90;3.93;;;5.60;93.30;;;;;;10396566;28;20234;-82
2022/02/26 22:25:37;;;;;;;5.50;3.63;;;5.50;92.90;;;;;;10376143;28;20298;-83
2022/02/26 22:30:41;;;;;;;12.47;4.47;;;5.40;92.70;;;;;;10376166;28;20237;-83
2022/02/26 22:35:44;;;;;;;6.57;4.60;;;5.30;92.70;;;;;;10401414;28;20214;-84
2022/02/26 22:40:48;;;;;;;9.23;4.60;;;5.10;93.10;;;;;;10389579;28;20289;-83
2022/02/26 22:45:51;;;;;;;5.30;3.60;;;5.10;93.60;;;;;;10383772;28;20297;-83
2022/02/26 22:50:53;;;;;;;6.70;3.70;;;5.00;93.80;;;;;;10361427;28;20222;-85
2022/02/26 22:55:57;;;;;;;6.93;4.63;;;4.90;94.00;;;;;;10386821;28;20233;-85
2022/02/26 23:01:05;;;;;;;5.60;3.93;;;4.90;93.70;;;;;;10394872;28;20236;-85
2022/02/26 23:06:07;;;;;;;12.57;4.27;;;4.80;93.40;;;;;;10372433;28;20645;-84
2022/02/26 23:11:11;;;;;;;6.63;4.20;;;4.80;94.40;;;;;;10383318;28;20765;-83
2022/02/26 23:16:13;;;;;;;9.93;4.70;;;4.70;93.70;;;;;;10415999;28;20313;-84
2022/02/26 23:21:15;;;;;;;9.97;4.07;;;4.60;94.80;;;;;;10384513;28;20236;-85
2022/02/26 23:26:19;;;;;;;8.00;4.47;;;4.60;93.70;;;;;;10403935;28;20305;-86
2022/02/26 23:31:25;;;;;;;11.27;4.43;;;4.60;93.80;;;;;;10355377;28;20301;-85
2022/02/26 23:36:27;;;;;;;7.40;4.37;;;4.40;94.30;;;;;;10381745;28;20207;-86
2022/02/26 23:41:31;;;;;;;6.60;3.63;;;4.40;94.70;;;;;;10361296;28;20236;-86
2022/02/26 23:46:33;;;;;;;8.50;4.47;;;4.40;95.30;;;;;;10361002;28;20202;-84
2022/02/26 23:51:36;;;;;;;6.77;4.23;;;4.40;95.30;;;;;;10361818;28;20406;-84
2022/02/26 23:56:40;;;;;;;6.83;4.13;;;4.40;94.80;;;;;;10387585;28;20306;-84
